createdAt,value
2019-02-14T00:01:54.934Z,10.65
2019-02-14T00:04:23.677Z,10.65
2019-02-14T00:06:52.457Z,10.63
2019-02-14T00:09:21.202Z,10.62
2019-02-14T00:11:49.959Z,10.62
2019-02-14T00:14:18.700Z,10.61
2019-02-14T00:16:47.463Z,10.61
2019-02-14T00:19:16.273Z,10.59
2019-02-14T00:21:45.177Z,10.60
2019-02-14T00:24:13.928Z,10.58
2019-02-14T00:26:42.763Z,10.57
2019-02-14T00:29:11.503Z,10.56
2019-02-14T00:31:40.280Z,10.56
2019-02-14T00:34:09.116Z,10.54
2019-02-14T00:36:37.888Z,10.52
2019-02-14T00:39:06.783Z,10.52
2019-02-14T00:41:35.566Z,10.51
2019-02-14T00:44:04.442Z,10.49
2019-02-14T00:46:33.225Z,10.49
2019-02-14T00:49:02.113Z,10.48
2019-02-14T00:51:30.875Z,10.47
2019-02-14T00:53:59.690Z,10.47
2019-02-14T00:56:28.451Z,10.45
2019-02-14T00:58:57.271Z,10.44
2019-02-14T01:01:26.030Z,10.43
2019-02-14T01:03:54.875Z,10.42
2019-02-14T01:06:23.644Z,10.42
2019-02-14T01:08:52.453Z,10.42
2019-02-14T01:11:21.239Z,10.39
2019-02-14T01:13:49.969Z,10.38
2019-02-14T01:16:18.744Z,10.38
2019-02-14T01:18:47.484Z,10.36
2019-02-14T01:21:16.238Z,10.36
2019-02-14T01:23:45.004Z,10.33
2019-02-14T01:26:13.867Z,10.33
2019-02-14T01:28:42.598Z,10.32
2019-02-14T01:31:11.340Z,10.31
2019-02-14T01:33:40.129Z,10.30
2019-02-14T01:36:08.864Z,10.29
2019-02-14T01:38:37.634Z,10.26
2019-02-14T01:41:06.367Z,10.26
2019-02-14T01:43:35.209Z,10.26
2019-02-14T01:46:04.015Z,10.25
2019-02-14T01:48:32.821Z,10.25
2019-02-14T01:51:01.715Z,10.23
2019-02-14T01:53:30.643Z,10.23
2019-02-14T01:55:59.380Z,10.21
2019-02-14T01:58:28.282Z,10.20
2019-02-14T02:00:57.110Z,10.20
2019-02-14T02:03:25.868Z,10.19
2019-02-14T02:05:54.683Z,10.19
2019-02-14T02:08:23.444Z,10.17
2019-02-14T02:10:52.279Z,10.15
2019-02-14T02:13:21.040Z,10.14
2019-02-14T02:15:49.775Z,10.13
2019-02-14T02:18:18.895Z,10.13
2019-02-14T02:20:47.652Z,10.11
2019-02-14T02:23:16.497Z,10.10
2019-02-14T02:25:45.233Z,10.10
2019-02-14T02:28:14.013Z,10.07
2019-02-14T02:30:42.822Z,10.08
2019-02-14T02:33:11.785Z,10.06
2019-02-14T02:35:40.528Z,10.05
2019-02-14T02:38:09.317Z,10.05
2019-02-14T02:40:38.051Z,10.03
2019-02-14T02:43:06.904Z,10.05
2019-02-14T02:45:35.642Z,10.02
2019-02-14T02:48:04.409Z,10.00
2019-02-14T02:50:33.307Z,9.99
2019-02-14T02:53:02.159Z,9.97
2019-02-14T02:55:30.894Z,9.96
2019-02-14T02:57:59.740Z,9.96
2019-02-14T03:00:28.504Z,9.94
2019-02-14T03:02:57.311Z,9.92
2019-02-14T03:05:26.244Z,9.91
2019-02-14T03:07:55.031Z,9.93
2019-02-14T03:10:23.894Z,9.91
2019-02-14T03:12:52.625Z,9.90
2019-02-14T03:15:21.386Z,9.90
2019-02-14T03:17:50.276Z,9.88
2019-02-14T03:20:19.132Z,9.90
2019-02-14T03:22:47.935Z,9.90
2019-02-14T03:25:17.508Z,9.89
2019-02-14T03:27:46.335Z,9.86
2019-02-14T03:30:15.496Z,9.87
2019-02-14T03:32:44.264Z,9.85
2019-02-14T03:35:13.024Z,9.82
2019-02-14T03:37:41.913Z,9.82
2019-02-14T03:40:11.386Z,9.82
2019-02-14T03:42:40.275Z,9.81
2019-02-14T03:45:15.003Z,9.80
2019-02-14T03:47:43.837Z,9.77
2019-02-14T03:50:12.657Z,9.77
2019-02-14T03:52:41.467Z,9.79
2019-02-14T03:55:10.361Z,9.76
2019-02-14T03:57:39.195Z,9.74
2019-02-14T04:00:11.115Z,9.73
2019-02-14T04:02:39.925Z,9.72
2019-02-14T04:05:08.858Z,9.69
2019-02-14T04:07:37.673Z,9.70
2019-02-14T04:10:07.294Z,9.69
2019-02-14T04:12:36.128Z,9.69
2019-02-14T04:15:05.305Z,9.67
2019-02-14T04:17:34.038Z,9.68
2019-02-14T04:20:02.785Z,9.66
2019-02-14T04:22:31.629Z,9.63
2019-02-14T04:25:00.364Z,9.62
2019-02-14T04:27:29.132Z,9.59
2019-02-14T04:29:57.871Z,9.61
2019-02-14T04:32:26.641Z,9.61
2019-02-14T04:34:55.412Z,9.62
2019-02-14T04:37:24.252Z,9.61
2019-02-14T04:39:53.056Z,9.60
2019-02-14T04:42:21.833Z,9.59
2019-02-14T04:44:50.632Z,9.58
2019-02-14T04:47:19.471Z,9.58
2019-02-14T04:49:48.220Z,9.58
2019-02-14T04:52:17.086Z,9.55
2019-02-14T04:54:45.893Z,9.58
2019-02-14T04:57:14.732Z,9.60
2019-02-14T04:59:43.612Z,9.61
2019-02-14T05:02:12.480Z,9.58
2019-02-14T05:04:41.277Z,9.61
2019-02-14T05:07:10.108Z,9.60
2019-02-14T05:09:38.928Z,9.62
2019-02-14T05:12:07.760Z,9.61
2019-02-14T05:14:36.570Z,9.62
2019-02-14T05:17:05.411Z,9.62
2019-02-14T05:19:34.211Z,9.64
2019-02-14T05:22:02.993Z,9.64
2019-02-14T05:24:31.806Z,9.66
2019-02-14T05:27:00.729Z,9.66
2019-02-14T05:29:29.466Z,9.69
2019-02-14T05:31:58.372Z,9.69
2019-02-14T05:34:27.131Z,9.72
2019-02-14T05:36:55.965Z,9.72
2019-02-14T05:39:24.702Z,9.73
2019-02-14T05:41:53.563Z,9.76
2019-02-14T05:44:22.286Z,9.76
2019-02-14T05:46:51.102Z,9.78
2019-02-14T05:49:21.016Z,9.79
2019-02-14T05:51:49.825Z,9.80
2019-02-14T05:54:18.655Z,9.81
2019-02-14T05:56:47.401Z,9.83
2019-02-14T05:59:16.304Z,9.83
2019-02-14T06:01:45.032Z,9.84
2019-02-14T06:04:13.878Z,9.86
2019-02-14T06:06:42.696Z,9.87
2019-02-14T06:09:11.537Z,9.89
2019-02-14T06:11:40.349Z,9.89
2019-02-14T06:14:09.113Z,9.91
2019-02-14T06:16:37.942Z,9.94
2019-02-14T06:19:06.713Z,9.95
2019-02-14T06:21:35.477Z,9.95
2019-02-14T06:24:04.250Z,9.97
2019-02-14T06:26:33.053Z,9.97
2019-02-14T06:29:01.815Z,9.97
2019-02-14T06:31:30.565Z,10.00
2019-02-14T06:33:59.367Z,10.01
2019-02-14T06:36:28.170Z,10.06
2019-02-14T06:38:57.096Z,10.12
2019-02-14T06:41:27.178Z,10.14
2019-02-14T06:43:55.974Z,10.37
2019-02-14T06:46:24.740Z,10.65
2019-02-14T06:48:53.601Z,10.70
2019-02-14T06:51:22.447Z,10.83
2019-02-14T06:53:51.307Z,11.01
2019-02-14T06:56:20.140Z,11.20
2019-02-14T06:58:48.994Z,11.42
2019-02-14T07:01:17.775Z,11.60
2019-02-14T07:03:46.637Z,11.77
2019-02-14T07:06:15.647Z,11.95
2019-02-14T07:08:44.495Z,12.23
2019-02-14T07:11:13.263Z,12.46
2019-02-14T07:13:42.128Z,12.56
2019-02-14T07:16:10.961Z,12.49
2019-02-14T07:18:39.837Z,12.40
2019-02-14T07:21:08.593Z,12.31
2019-02-14T07:23:37.453Z,12.24
2019-02-14T07:26:06.307Z,12.20
2019-02-14T07:28:35.166Z,12.19
2019-02-14T07:31:04.026Z,12.18
2019-02-14T07:33:32.954Z,12.19
2019-02-14T07:36:01.741Z,12.26
2019-02-14T07:38:30.505Z,12.32
2019-02-14T07:40:59.352Z,12.40
2019-02-14T07:43:28.289Z,12.47
2019-02-14T07:45:57.136Z,12.54
2019-02-14T07:48:26.057Z,12.62
2019-02-14T07:50:54.841Z,12.69
2019-02-14T07:53:23.701Z,12.91
2019-02-14T07:55:52.519Z,13.22
2019-02-14T07:58:21.343Z,13.44
2019-02-14T08:00:50.277Z,13.60
2019-02-14T08:03:19.038Z,13.54
2019-02-14T08:05:47.853Z,13.39
2019-02-14T08:08:16.614Z,13.26
2019-02-14T08:10:45.404Z,13.17
2019-02-14T08:13:14.177Z,13.12
2019-02-14T08:15:42.985Z,13.09
2019-02-14T08:18:11.731Z,13.08
2019-02-14T08:20:40.510Z,13.06
2019-02-14T08:23:09.265Z,13.07
2019-02-14T08:25:38.047Z,13.05
2019-02-14T08:28:07.283Z,13.04
2019-02-14T08:30:36.307Z,13.01
2019-02-14T08:33:05.374Z,12.99
2019-02-14T08:35:34.442Z,13.00
2019-02-14T08:38:03.266Z,13.00
2019-02-14T08:40:32.148Z,12.98
2019-02-14T08:43:01.208Z,12.97
2019-02-14T08:45:30.059Z,12.96
2019-02-14T08:47:58.942Z,12.97
2019-02-14T08:50:28.212Z,12.97
2019-02-14T08:52:57.071Z,13.00
2019-02-14T08:55:26.029Z,13.16
2019-02-14T08:57:54.919Z,13.32
2019-02-14T09:00:23.776Z,13.37
2019-02-14T09:02:52.948Z,13.19
2019-02-14T09:05:21.862Z,13.06
2019-02-14T09:07:54.820Z,12.96
2019-02-14T09:10:21.444Z,12.88
2019-02-14T09:12:50.545Z,12.80
2019-02-14T09:15:19.684Z,12.71
2019-02-14T09:17:48.840Z,12.60
2019-02-14T09:20:17.779Z,12.53
2019-02-14T09:22:46.572Z,12.45
2019-02-14T09:25:15.322Z,12.41
2019-02-14T09:27:44.231Z,12.38
2019-02-14T09:30:13.131Z,12.36
2019-02-14T09:32:42.255Z,12.34
2019-02-14T09:35:11.031Z,12.31
2019-02-14T09:37:39.893Z,12.28
2019-02-14T09:40:10.032Z,12.27
2019-02-14T09:42:38.852Z,12.27
2019-02-14T09:45:08.750Z,12.48
2019-02-14T09:47:37.532Z,12.78
2019-02-14T09:50:07.172Z,12.95
2019-02-14T09:52:35.950Z,12.81
2019-02-14T09:55:05.287Z,12.66
2019-02-14T09:57:34.135Z,12.54
2019-02-14T10:00:02.893Z,12.52
2019-02-14T10:02:31.694Z,12.49
2019-02-14T10:05:00.435Z,12.49
2019-02-14T10:07:29.303Z,12.46
2019-02-14T10:09:58.062Z,12.47
2019-02-14T10:12:26.854Z,12.60
2019-02-14T10:14:55.610Z,12.66
2019-02-14T10:17:24.483Z,12.73
2019-02-14T10:19:53.322Z,12.75
2019-02-14T10:22:22.158Z,12.76
2019-02-14T10:24:52.555Z,12.78
2019-02-14T10:27:21.787Z,12.79
2019-02-14T10:29:50.605Z,12.78
2019-02-14T10:32:19.551Z,12.83
2019-02-14T10:34:48.434Z,12.88
2019-02-14T10:37:17.255Z,12.92
2019-02-14T10:39:46.299Z,12.94
2019-02-14T10:42:15.203Z,13.01
2019-02-14T10:44:44.140Z,13.06
2019-02-14T10:47:12.970Z,13.10
2019-02-14T10:49:41.883Z,13.16
2019-02-14T10:52:10.934Z,13.19
2019-02-14T10:54:39.772Z,13.23
2019-02-14T10:57:08.598Z,13.27
2019-02-14T10:59:37.404Z,13.35
2019-02-14T11:02:06.151Z,13.40
2019-02-14T11:04:35.000Z,13.42
2019-02-14T11:07:03.763Z,13.45
2019-02-14T11:09:32.540Z,13.45
2019-02-14T11:12:01.289Z,13.49
2019-02-14T11:14:30.057Z,13.50
2019-02-14T11:16:58.906Z,13.50
2019-02-14T11:19:27.703Z,13.50
2019-02-14T11:21:56.589Z,13.54
2019-02-14T11:24:25.430Z,13.56
2019-02-14T11:26:54.248Z,13.53
2019-02-14T11:29:23.031Z,13.50
2019-02-14T11:31:51.800Z,13.48
2019-02-14T11:34:20.653Z,13.48
2019-02-14T11:36:49.403Z,13.48
2019-02-14T11:39:18.176Z,13.50
2019-02-14T11:41:47.008Z,13.55
2019-02-14T11:44:15.894Z,13.54
2019-02-14T11:46:51.320Z,13.58
2019-02-14T11:49:15.304Z,13.59
2019-02-14T11:51:44.040Z,13.63
2019-02-14T11:54:14.107Z,13.67
2019-02-14T11:56:42.899Z,13.76
2019-02-14T11:59:11.784Z,13.82
2019-02-14T12:01:40.611Z,13.89
2019-02-14T12:04:09.469Z,13.95
2019-02-14T12:06:38.242Z,14.03
2019-02-14T12:09:07.133Z,14.02
2019-02-14T12:11:35.886Z,14.07
2019-02-14T12:14:04.748Z,14.12
2019-02-14T12:16:33.591Z,14.13
2019-02-14T12:19:02.441Z,14.17
2019-02-14T12:21:31.190Z,14.20
2019-02-14T12:24:01.647Z,14.18
2019-02-14T12:26:30.573Z,14.19
2019-02-14T12:28:59.529Z,14.20
2019-02-14T12:31:28.376Z,14.23
2019-02-14T12:34:01.576Z,14.26
2019-02-14T12:36:30.484Z,14.29
2019-02-14T12:38:59.207Z,14.32
2019-02-14T12:41:27.993Z,14.35
2019-02-14T12:43:56.845Z,14.34
2019-02-14T12:46:25.851Z,14.34
2019-02-14T12:48:54.606Z,14.36
2019-02-14T12:51:23.481Z,14.39
2019-02-14T12:53:52.305Z,14.44
2019-02-14T12:56:22.893Z,14.46
2019-02-14T12:58:51.758Z,14.50
2019-02-14T13:01:22.016Z,14.50
2019-02-14T13:03:50.853Z,14.51
2019-02-14T13:06:19.741Z,14.49
2019-02-14T13:08:49.045Z,14.53
2019-02-14T13:11:18.547Z,14.57
2019-02-14T13:13:49.981Z,14.57
2019-02-14T13:16:19.153Z,14.63
2019-02-14T13:18:48.227Z,14.62
2019-02-14T13:21:17.286Z,14.65
2019-02-14T13:23:46.041Z,14.66
2019-02-14T13:26:14.932Z,14.69
2019-02-14T13:28:44.207Z,14.71
2019-02-14T13:31:12.981Z,14.73
2019-02-14T13:33:41.802Z,14.80
2019-02-14T13:36:10.597Z,14.86
2019-02-14T13:38:39.500Z,14.94
2019-02-14T13:41:08.264Z,14.98
2019-02-14T13:43:37.107Z,15.01
2019-02-14T13:46:05.872Z,15.04
2019-02-14T13:48:34.610Z,15.03
2019-02-14T13:51:03.378Z,15.04
2019-02-14T13:53:32.112Z,15.06
2019-02-14T13:56:00.890Z,15.07
2019-02-14T13:58:29.714Z,15.13
2019-02-14T14:00:58.500Z,15.18
2019-02-14T14:03:27.241Z,15.17
2019-02-14T14:05:55.999Z,15.18
2019-02-14T14:08:24.736Z,15.22
2019-02-14T14:10:53.495Z,15.22
2019-02-14T14:13:22.245Z,15.28
2019-02-14T14:15:51.041Z,15.30
2019-02-14T14:18:19.794Z,15.32
2019-02-14T14:20:48.611Z,15.36
2019-02-14T14:23:17.450Z,15.37
2019-02-14T14:25:46.318Z,15.40
2019-02-14T14:28:21.212Z,15.40
2019-02-14T14:30:55.923Z,15.45
2019-02-14T14:33:24.658Z,15.44
2019-02-14T14:35:53.519Z,15.49
2019-02-14T14:38:22.344Z,15.46
2019-02-14T14:40:51.165Z,15.53
2019-02-14T14:43:39.014Z,15.60
2019-02-14T14:46:12.440Z,15.63
2019-02-14T14:48:44.327Z,15.68
2019-02-14T14:51:13.146Z,15.69
2019-02-14T14:53:41.954Z,15.75
2019-02-14T14:56:10.783Z,15.83
2019-02-14T14:58:39.785Z,15.86
2019-02-14T15:01:08.501Z,15.93
2019-02-14T15:03:37.339Z,16.00
2019-02-14T15:06:06.097Z,16.08
2019-02-14T15:08:34.942Z,16.17
2019-02-14T15:11:03.762Z,16.23
2019-02-14T15:13:32.602Z,16.34
2019-02-14T15:16:01.440Z,16.45
2019-02-14T15:18:30.213Z,16.53
2019-02-14T15:20:58.997Z,16.62
2019-02-14T15:23:27.845Z,16.69
2019-02-14T15:25:56.590Z,16.75
2019-02-14T15:28:25.369Z,16.81
2019-02-14T15:30:54.109Z,16.86
2019-02-14T15:33:22.869Z,16.88
2019-02-14T15:35:51.611Z,16.83
2019-02-14T15:38:20.373Z,16.65
2019-02-14T15:40:49.112Z,16.39
2019-02-14T15:43:17.910Z,16.13
2019-02-14T15:45:46.801Z,15.93
2019-02-14T15:48:15.655Z,15.78
2019-02-14T15:50:44.575Z,15.63
2019-02-14T15:53:13.450Z,15.53
2019-02-14T15:55:43.835Z,15.44
2019-02-14T15:58:11.894Z,15.36
2019-02-14T16:00:40.678Z,15.26
2019-02-14T16:03:09.864Z,15.18
2019-02-14T16:05:40.251Z,15.11
2019-02-14T16:08:09.153Z,15.05
2019-02-14T16:10:38.023Z,14.97
2019-02-14T16:13:09.773Z,14.91
2019-02-14T16:15:38.678Z,14.85
2019-02-14T16:18:07.721Z,14.80
2019-02-14T16:20:36.463Z,14.72
2019-02-14T16:23:06.431Z,14.67
2019-02-14T16:25:36.030Z,14.62
2019-02-14T16:28:05.147Z,14.56
2019-02-14T16:30:33.983Z,14.50
2019-02-14T16:33:02.835Z,14.46
2019-02-14T16:35:31.606Z,14.42
2019-02-14T16:38:00.415Z,14.37
2019-02-14T16:40:38.007Z,14.33
2019-02-14T16:42:59.729Z,14.28
2019-02-14T16:45:28.544Z,14.22
2019-02-14T16:47:57.510Z,14.19
2019-02-14T16:50:26.281Z,14.15
2019-02-14T16:52:55.168Z,14.12
2019-02-14T16:55:24.008Z,14.09
2019-02-14T16:57:52.745Z,14.05
2019-02-14T17:00:21.518Z,14.02
2019-02-14T17:02:50.432Z,13.97
2019-02-14T17:05:19.700Z,13.94
2019-02-14T17:07:48.637Z,13.88
2019-02-14T17:10:17.402Z,13.86
2019-02-14T17:12:46.284Z,13.82
2019-02-14T17:15:15.273Z,13.79
2019-02-14T17:17:44.046Z,13.76
2019-02-14T17:20:12.976Z,13.75
2019-02-14T17:22:41.874Z,13.69
2019-02-14T17:25:10.637Z,13.68
2019-02-14T17:27:39.404Z,13.64
2019-02-14T17:30:08.631Z,13.61
2019-02-14T17:32:37.676Z,13.58
2019-02-14T17:35:06.580Z,13.55
2019-02-14T17:37:35.391Z,13.53
2019-02-14T17:40:04.849Z,13.50
2019-02-14T17:42:33.743Z,13.47
2019-02-14T17:45:02.600Z,13.45
2019-02-14T17:47:31.348Z,13.43
2019-02-14T17:50:00.383Z,13.39
2019-02-14T17:52:29.180Z,13.37
2019-02-14T17:54:58.659Z,13.35
2019-02-14T17:57:28.039Z,13.32
2019-02-14T17:59:57.377Z,13.27
2019-02-14T18:02:28.591Z,13.27
2019-02-14T18:04:57.887Z,13.25
2019-02-14T18:07:28.174Z,13.21
2019-02-14T18:09:57.629Z,13.19
2019-02-14T18:12:27.026Z,13.17
2019-02-14T18:14:56.702Z,13.15
2019-02-14T18:17:25.754Z,13.09
2019-02-14T18:20:02.219Z,13.09
2019-02-14T18:22:31.417Z,13.06
2019-02-14T18:25:00.331Z,13.04
2019-02-14T18:27:29.066Z,13.02
2019-02-14T18:29:57.908Z,13.00
2019-02-14T18:32:26.733Z,12.98
2019-02-14T18:34:55.552Z,12.96
2019-02-14T18:37:24.433Z,12.93
2019-02-14T18:39:53.229Z,12.92
2019-02-14T18:42:22.057Z,12.89
2019-02-14T18:44:50.981Z,12.87
2019-02-14T18:47:19.853Z,12.85
2019-02-14T18:49:48.645Z,12.83
2019-02-14T18:52:17.635Z,12.81
2019-02-14T18:54:46.505Z,12.79
2019-02-14T18:57:15.467Z,12.78
2019-02-14T18:59:44.355Z,12.75
2019-02-14T19:02:13.176Z,12.73
2019-02-14T19:04:42.022Z,12.71
2019-02-14T19:07:10.990Z,12.69
2019-02-14T19:09:40.503Z,12.68
2019-02-14T19:12:09.552Z,12.66
2019-02-14T19:14:38.504Z,12.63
2019-02-14T19:17:07.418Z,12.61
2019-02-14T19:19:36.515Z,12.58
2019-02-14T19:22:05.413Z,12.57
2019-02-14T19:24:34.366Z,12.56
2019-02-14T19:27:03.223Z,12.54
2019-02-14T19:29:32.001Z,12.52
2019-02-14T19:32:00.780Z,12.50
2019-02-14T19:34:29.752Z,12.48
2019-02-14T19:36:58.612Z,12.46
2019-02-14T19:39:27.559Z,12.45
2019-02-14T19:41:56.365Z,12.42
2019-02-14T19:44:25.397Z,12.41
2019-02-14T19:46:54.243Z,12.40
2019-02-14T19:49:23.150Z,12.36
2019-02-14T19:51:52.043Z,12.36
2019-02-14T19:54:20.970Z,12.35
2019-02-14T19:56:49.832Z,12.31
2019-02-14T19:59:18.752Z,12.28
2019-02-14T20:01:47.661Z,12.28
2019-02-14T20:04:16.599Z,12.26
2019-02-14T20:06:45.549Z,12.25
2019-02-14T20:09:15.458Z,12.23
2019-02-14T20:11:44.373Z,12.22
2019-02-14T20:14:13.307Z,12.20
2019-02-14T20:16:42.406Z,12.19
2019-02-14T20:19:11.298Z,12.18
2019-02-14T20:21:40.352Z,12.15
2019-02-14T20:24:09.349Z,12.14
2019-02-14T20:26:38.307Z,12.13
2019-02-14T20:29:07.224Z,12.11
2019-02-14T20:31:36.194Z,12.10
2019-02-14T20:34:04.951Z,12.08
2019-02-14T20:36:33.819Z,12.06
2019-02-14T20:39:02.931Z,12.06
2019-02-14T20:41:46.025Z,12.05
2019-02-14T20:44:10.642Z,12.01
2019-02-14T20:46:39.572Z,12.00
2019-02-14T20:49:08.444Z,11.99
2019-02-14T20:51:38.709Z,11.99
2019-02-14T20:54:06.803Z,11.96
2019-02-14T20:56:35.952Z,11.94
2019-02-14T20:59:04.863Z,11.91
2019-02-14T21:01:33.717Z,11.91
2019-02-14T21:04:02.668Z,11.89
2019-02-14T21:06:31.568Z,11.87
2019-02-14T21:09:00.404Z,11.87
2019-02-14T21:11:29.396Z,11.85
2019-02-14T21:13:58.137Z,11.83
2019-02-14T21:16:26.999Z,11.81
2019-02-14T21:18:55.828Z,11.80
2019-02-14T21:21:24.640Z,11.79
2019-02-14T21:23:53.391Z,11.77
2019-02-14T21:26:22.265Z,11.76
2019-02-14T21:28:51.195Z,11.75
2019-02-14T21:31:19.965Z,11.72
2019-02-14T21:33:48.872Z,11.72
2019-02-14T21:36:17.678Z,11.70
2019-02-14T21:38:46.442Z,11.69
2019-02-14T21:41:15.190Z,11.66
2019-02-14T21:43:44.121Z,11.65
2019-02-14T21:46:13.192Z,11.63
2019-02-14T21:48:42.102Z,11.62
2019-02-14T21:51:11.079Z,11.61
2019-02-14T21:53:40.208Z,11.59
2019-02-14T21:56:09.477Z,11.57
2019-02-14T21:58:38.663Z,11.55
2019-02-14T22:01:07.754Z,11.53
2019-02-14T22:03:36.596Z,11.53
2019-02-14T22:06:05.404Z,11.51
2019-02-14T22:08:37.294Z,11.50
2019-02-14T22:11:06.257Z,11.47
2019-02-14T22:13:35.084Z,11.45
2019-02-14T22:16:05.102Z,11.43
2019-02-14T22:18:33.868Z,11.43
2019-02-14T22:21:02.608Z,11.41
2019-02-14T22:23:31.374Z,11.40
2019-02-14T22:26:00.112Z,11.38
2019-02-14T22:28:28.881Z,11.35
2019-02-14T22:30:57.792Z,11.34
2019-02-14T22:33:26.571Z,11.33
2019-02-14T22:35:55.394Z,11.31
2019-02-14T22:38:24.220Z,11.29
2019-02-14T22:40:53.114Z,11.30
2019-02-14T22:43:21.933Z,11.27
2019-02-14T22:45:50.693Z,11.25
2019-02-14T22:48:19.551Z,11.24
2019-02-14T22:50:48.298Z,11.22
2019-02-14T22:53:17.143Z,11.19
2019-02-14T22:55:45.904Z,11.20
2019-02-14T22:58:14.738Z,11.19
2019-02-14T23:00:50.866Z,11.16
2019-02-14T23:03:19.633Z,11.15
2019-02-14T23:05:48.386Z,11.14
2019-02-14T23:08:17.393Z,11.13
2019-02-14T23:10:46.161Z,11.14
2019-02-14T23:13:14.960Z,11.11
2019-02-14T23:15:43.834Z,11.11
2019-02-14T23:18:12.713Z,11.08
2019-02-14T23:20:41.469Z,11.06
2019-02-14T23:23:10.415Z,11.01
2019-02-14T23:25:39.160Z,10.99
2019-02-14T23:28:08.110Z,11.01
2019-02-14T23:30:37.005Z,11.00
2019-02-14T23:33:05.789Z,10.98
2019-02-14T23:35:34.606Z,10.98
2019-02-14T23:38:03.897Z,10.99
2019-02-14T23:40:32.661Z,10.96
2019-02-14T23:43:04.774Z,10.97
2019-02-14T23:45:32.128Z,10.95
2019-02-14T23:48:00.948Z,10.94
2019-02-14T23:50:29.799Z,10.90
2019-02-14T23:52:58.837Z,10.89
2019-02-14T23:55:27.711Z,10.86
2019-02-14T23:57:56.540Z,10.84
